Time;durP1;ratioP1;P1;durP2;ratioP2;P2;SDS_P1;SDS_P2;PMS_P1;PMS_P2;Temp;Humidity;BMP_temperature;BMP_pressure;BME280_temperature;BME280_humidity;BME280_pressure;Samples;Min_cycle;Max_cycle;Signal;HPM_P1;HPM_P2
2021/08/28 00:01:58;;;;;;;30.77;15.65;;;;;;;9.80;83.84;100337.02;1788600;80;20998;-79
2021/08/28 00:04:24;;;;;;;29.67;15.23;;;;;;;9.77;83.85;100340.86;1788463;80;21082;-79
2021/08/28 00:06:50;;;;;;;31.73;16.32;;;;;;;9.77;83.87;100346.18;1788745;80;21071;-79
2021/08/28 00:09:16;;;;;;;30.05;16.30;;;;;;;9.76;83.88;100346.33;1788650;80;21182;-79
2021/08/28 00:11:42;;;;;;;30.45;16.12;;;;;;;9.77;83.91;100344.84;1788430;80;21436;-78
2021/08/28 00:14:08;;;;;;;29.98;16.17;;;;;;;9.77;83.90;100348.84;1788429;80;21480;-79
2021/08/28 00:16:34;;;;;;;25.05;14.10;;;;;;;9.81;83.91;100344.02;1788555;80;21648;-79
2021/08/28 00:19:00;;;;;;;33.18;19.10;;;;;;;9.84;83.92;100346.34;1787923;80;20917;-79
2021/08/28 00:21:26;;;;;;;30.17;17.57;;;;;;;9.82;83.93;100332.34;1788630;80;21768;-78
2021/08/28 00:23:52;;;;;;;26.33;14.15;;;;;;;9.89;83.96;100338.66;1788389;79;21334;-79
2021/08/28 00:26:18;;;;;;;23.18;13.58;;;;;;;9.92;83.97;100334.36;1788507;80;21011;-79
2021/08/28 00:28:45;;;;;;;35.60;14.25;;;;;;;9.95;83.97;100332.70;1788654;80;21551;-79
2021/08/28 00:31:11;;;;;;;31.73;14.15;;;;;;;9.97;84.03;100335.52;1788612;80;21055;-79
2021/08/28 00:33:37;;;;;;;55.55;15.48;;;;;;;9.99;84.05;100336.69;1788703;80;21843;-79
2021/08/28 00:36:03;;;;;;;89.65;19.02;;;;;;;10.02;84.08;100340.34;1788520;80;21657;-79
2021/08/28 00:38:29;;;;;;;114.55;20.52;;;;;;;10.03;84.00;100337.99;1788476;80;21070;-79
2021/08/28 00:40:56;;;;;;;162.05;24.72;;;;;;;10.07;84.14;100332.67;1788504;80;21004;-79
2021/08/28 00:43:25;;;;;;;128.60;22.67;;;;;;;10.11;84.14;100328.67;1788740;80;21495;-80
2021/08/28 00:45:51;;;;;;;91.87;20.72;;;;;;;10.14;84.17;100329.69;1788871;79;21142;-79
2021/08/28 00:48:17;;;;;;;86.25;18.45;;;;;;;10.17;84.19;100326.69;1788539;80;21038;-79
2021/08/28 00:50:44;;;;;;;59.55;16.27;;;;;;;10.17;84.24;100323.22;1788470;80;21012;-79
2021/08/28 00:53:12;;;;;;;56.50;18.75;;;;;;;10.18;84.27;100324.36;1788337;80;21487;-79
2021/08/28 00:55:39;;;;;;;134.40;21.73;;;;;;;10.20;84.31;100327.70;1788543;80;21075;-79
2021/08/28 00:58:05;;;;;;;114.28;17.55;;;;;;;10.21;84.33;100329.84;1788348;80;21115;-79
2021/08/28 01:00:33;;;;;;;117.82;26.25;;;;;;;10.16;84.36;100329.05;1788502;80;21024;-79
2021/08/28 01:02:59;;;;;;;108.78;38.65;;;;;;;10.13;84.38;100326.69;1788315;80;21011;-79
2021/08/28 01:05:29;;;;;;;45.05;23.95;;;;;;;10.08;84.40;100331.67;1788632;80;21018;-79
2021/08/28 01:08:16;;;;;;;32.53;14.93;;;;;;;10.05;84.43;100333.34;1788702;80;21466;-79
2021/08/28 01:10:50;;;;;;;42.17;14.55;;;;;;;10.05;84.48;100334.68;1761425;80;21528;-79
2021/08/28 01:13:16;;;;;;;32.42;12.82;;;;;;;10.05;84.51;100337.34;1788256;80;21468;-80
2021/08/28 01:15:45;;;;;;;23.62;12.43;;;;;;;10.02;84.52;100333.69;1788569;80;21019;-80
2021/08/28 01:21:34;;;;;;;28.40;16.17;;;;;;;9.98;84.61;100324.36;1709701;81;20988;-80
2021/08/28 01:24:04;;;;;;;22.93;14.18;;;;;;;10.05;84.67;100336.02;1690518;84;21823;-80
2021/08/28 01:26:37;;;;;;;;;;;;;;;10.09;84.72;100334.69;1692440;84;21059;-79
2021/08/28 01:29:19;;;;;;;33.13;17.15;;;;;;;10.15;84.75;100336.70;1689026;84;20193;-79
2021/08/28 01:31:49;;;;;;;19.20;11.15;;;;;;;10.19;84.81;100335.36;1690430;84;21067;-79
2021/08/28 01:34:16;;;;;;;24.27;13.78;;;;;;;10.21;84.85;100333.34;1690480;84;21522;-79
2021/08/28 01:36:44;;;;;;;23.15;14.00;;;;;;;10.27;84.91;100339.36;1690550;84;21259;-80
2021/08/28 01:39:10;;;;;;;22.07;12.58;;;;;;;10.29;84.98;100338.67;1689894;84;21471;-80
2021/08/28 01:41:38;;;;;;;28.12;14.13;;;;;;;10.29;85.05;100337.84;1690447;84;21000;-80
2021/08/28 01:44:07;;;;;;;19.87;12.68;;;;;;;10.31;85.13;100336.66;1690456;84;21000;-79
2021/08/28 01:46:33;;;;;;;22.73;12.78;;;;;;;10.36;85.18;100343.66;1668739;84;21090;-79
2021/08/28 01:48:59;;;;;;;22.02;12.68;;;;;;;10.42;85.23;100335.47;1690418;84;21143;-79
2021/08/28 01:51:28;;;;;;;19.00;12.30;;;;;;;10.44;85.29;100338.81;1690161;85;21056;-79
2021/08/28 01:53:54;;;;;;;26.45;13.98;;;;;;;10.46;85.35;100345.63;1690466;84;21000;-79
2021/08/28 01:56:20;;;;;;;19.42;12.50;;;;;;;10.46;85.36;100341.63;1690108;84;20901;-79
2021/08/28 01:58:46;;;;;;;22.15;11.78;;;;;;;10.42;85.36;100340.80;1690511;84;21088;-79
2021/08/28 02:01:12;;;;;;;17.42;10.80;;;;;;;10.41;85.42;100343.95;1690127;84;21148;-79
2021/08/28 02:03:38;;;;;;;20.85;12.13;;;;;;;10.39;85.48;100341.14;1690460;84;20967;-79
2021/08/28 02:06:04;;;;;;;23.67;13.25;;;;;;;10.36;85.50;100343.66;1690527;84;21007;-79
2021/08/28 02:08:45;;;;;;;32.03;15.78;;;;;;;10.39;85.52;100338.48;1690233;84;21043;-79
2021/08/28 02:11:14;;;;;;;30.27;13.58;;;;;;;10.42;85.49;100340.80;1690129;84;21020;-79
2021/08/28 02:13:56;;;;;;;22.73;12.07;;;;;;;10.42;85.50;100346.13;1690446;84;21177;-79
2021/08/28 02:16:23;;;;;;;21.33;11.78;;;;;;;10.36;85.54;100344.98;1671431;84;21388;-79
2021/08/28 02:18:56;;;;;;;23.42;11.28;;;;;;;10.32;85.55;100347.66;1690624;84;21003;-79
2021/08/28 02:21:22;;;;;;;33.53;12.75;;;;;;;10.34;85.59;100342.17;1663530;85;21078;-79
2021/08/28 02:24:06;;;;;;;32.13;13.40;;;;;;;10.34;85.61;100347.01;1619637;86;21082;-79
2021/08/28 02:26:48;;;;;;;38.53;13.68;;;;;;;10.31;85.62;100343.31;1662187;86;21859;-79
2021/08/28 02:29:19;;;;;;;54.15;13.50;;;;;;;10.28;85.63;100350.33;1662343;86;21029;-79
2021/08/28 02:31:47;;;;;;;67.70;12.95;;;;;;;10.20;85.65;100343.70;1662521;86;21071;-80
2021/08/28 02:34:14;;;;;;;74.07;13.90;;;;;;;10.14;85.68;100347.02;1662354;86;21496;-80
2021/08/28 02:36:41;;;;;;;57.17;15.53;;;;;;;10.06;85.68;100340.35;1641413;86;21063;-80
2021/08/28 02:39:10;;;;;;;42.58;13.65;;;;;;;10.04;85.68;100345.00;1662198;86;21126;-80
2021/08/28 02:41:37;;;;;;;39.92;13.38;;;;;;;9.99;85.72;100340.69;1662506;86;21035;-80
2021/08/28 02:44:03;;;;;;;34.53;13.25;;;;;;;9.97;85.75;100342.67;1641374;86;21067;-80
2021/08/28 02:46:29;;;;;;;32.00;12.85;;;;;;;9.99;85.80;100344.69;1662467;86;21011;-79
2021/08/28 02:48:56;;;;;;;37.55;13.05;;;;;;;10.03;85.83;100344.16;1662315;86;21035;-80
2021/08/28 02:51:22;;;;;;;31.52;12.47;;;;;;;10.05;85.85;100348.00;1641387;86;21962;-79
2021/08/28 02:53:48;;;;;;;66.95;29.98;;;;;;;10.06;85.89;100347.02;1662382;86;21062;-80
2021/08/28 02:56:15;;;;;;;52.27;19.23;;;;;;;10.10;85.88;100344.31;1662290;86;20992;-80
2021/08/28 02:58:42;;;;;;;52.13;19.30;;;;;;;10.10;85.91;100349.64;1662590;86;21020;-79
2021/08/28 03:01:08;;;;;;;33.70;15.23;;;;;;;10.11;85.93;100347.81;1661592;86;21079;-79
2021/08/28 03:03:34;;;;;;;38.08;16.02;;;;;;;10.11;85.94;100351.31;1650918;86;21027;-79
2021/08/28 03:06:00;;;;;;;37.42;13.45;;;;;;;10.12;85.94;100346.33;1646646;86;21007;-79
2021/08/28 03:08:26;;;;;;;29.50;12.85;;;;;;;10.12;85.96;100344.16;1650968;86;21031;-79
2021/08/28 03:10:53;;;;;;;39.65;14.07;;;;;;;10.00;85.92;100327.67;1653306;86;20920;-79
2021/08/28 03:13:19;;;;;;;30.65;14.87;;;;;;;10.00;85.92;100327.67;1602067;89;21579;-80
2021/08/28 03:15:46;;;;;;;33.75;12.60;;;;;;;10.11;85.99;100347.32;1601935;89;21035;-79
2021/08/28 03:18:13;;;;;;;28.45;13.43;;;;;;;10.10;85.97;100342.98;1610880;88;21082;-79
2021/08/28 03:20:41;;;;;;;31.93;13.43;;;;;;;10.09;85.98;100345.34;1611426;88;21033;-79
2021/08/28 03:23:06;;;;;;;30.08;13.90;;;;;;;10.06;85.98;100349.67;1611568;88;21057;-80
2021/08/28 03:25:34;;;;;;;29.90;13.83;;;;;;;10.02;85.96;100354.50;1611469;89;20934;-80
2021/08/28 03:28:00;;;;;;;26.73;12.37;;;;;;;9.97;85.98;100357.32;1611668;88;21169;-80
2021/08/28 03:30:26;;;;;;;24.52;11.57;;;;;;;9.97;85.98;100362.65;1611665;89;21061;-79
2021/08/28 03:32:52;;;;;;;23.75;10.93;;;;;;;9.90;85.93;100361.65;1588869;89;21017;-80
2021/08/28 03:35:18;;;;;;;27.75;12.10;;;;;;;9.87;85.96;100360.16;1604009;89;20990;-80
2021/08/28 03:37:44;;;;;;;27.75;11.85;;;;;;;9.82;85.96;100374.95;1611739;88;21014;-79
2021/08/28 03:40:11;;;;;;;43.20;18.10;;;;;;;9.81;86.00;100363.99;1611563;88;21021;-80
2021/08/28 03:42:38;;;;;;;41.98;17.15;;;;;;;9.83;86.03;100362.81;1591745;89;21437;-80
2021/08/28 03:45:09;;;;;;;34.67;17.25;;;;;;;9.89;86.04;100363.48;1610238;89;21037;-80
2021/08/28 03:47:37;;;;;;;41.63;17.27;;;;;;;9.91;86.03;100363.33;1611606;88;21101;-80
2021/08/28 03:50:04;;;;;;;45.33;19.50;;;;;;;9.95;86.06;100363.33;1611712;88;21518;-80
2021/08/28 03:52:30;;;;;;;48.50;19.52;;;;;;;9.93;86.05;100356.83;1595843;89;21131;-79
2021/08/28 03:54:56;;;;;;;73.20;20.48;;;;;;;9.99;86.03;100358.00;1603290;88;21514;-79
2021/08/28 03:57:22;;;;;;;49.05;19.27;;;;;;;9.98;86.05;100357.66;1586157;89;21029;-80
2021/08/28 03:59:48;;;;;;;44.53;21.10;;;;;;;9.95;86.05;100354.00;1600752;89;21100;-80
2021/08/28 04:02:14;;;;;;;49.18;20.43;;;;;;;9.97;86.02;100350.66;1611210;88;20903;-80
2021/08/28 04:04:40;;;;;;;49.27;19.17;;;;;;;9.99;86.06;100352.16;1586290;90;21104;-80
2021/08/28 04:07:06;;;;;;;57.30;19.57;;;;;;;10.05;86.07;100353.33;1605571;89;21009;-79
2021/08/28 04:09:32;;;;;;;79.75;18.98;;;;;;;10.05;86.08;100352.00;1611546;89;21005;-79
2021/08/28 04:11:58;;;;;;;64.62;17.80;;;;;;;10.04;86.07;100351.66;1611831;89;20969;-79
2021/08/28 04:14:24;;;;;;;56.18;18.45;;;;;;;10.06;86.11;100355.50;1611465;87;21057;-79
2021/08/28 04:16:50;;;;;;;55.55;17.98;;;;;;;10.08;86.09;100356.15;1595616;89;21172;-79
2021/08/28 04:19:16;;;;;;;55.58;16.82;;;;;;;10.11;86.11;100364.64;1587447;89;20895;-79
2021/08/28 04:21:42;;;;;;;42.43;16.32;;;;;;;10.04;86.11;100360.98;1611682;88;20930;-79
2021/08/28 04:24:08;;;;;;;51.08;16.48;;;;;;;10.08;86.19;100359.66;1611480;89;20922;-79
2021/08/28 04:26:34;;;;;;;44.13;15.05;;;;;;;10.14;86.22;100360.80;1612036;88;21018;-79
2021/08/28 04:29:00;;;;;;;41.53;15.98;;;;;;;10.14;86.21;100360.34;1612137;89;21095;-79
2021/08/28 04:31:26;;;;;;;42.30;14.70;;;;;;;10.11;86.24;100365.98;1611707;88;21530;-80
2021/08/28 04:33:52;;;;;;;52.83;14.90;;;;;;;10.13;86.27;100369.32;1592679;88;21629;-80
2021/08/28 04:36:18;;;;;;;53.20;15.50;;;;;;;10.15;86.28;100371.34;1596577;89;21527;-79
2021/08/28 04:38:44;;;;;;;84.83;15.83;;;;;;;10.18;86.33;100374.99;1606935;89;21032;-79
2021/08/28 04:41:10;;;;;;;64.58;16.07;;;;;;;10.24;86.35;100370.31;1586645;90;21142;-79
2021/08/28 04:43:36;;;;;;;38.25;15.63;;;;;;;10.31;86.37;100374.50;1586530;89;20903;-79
2021/08/28 04:46:02;;;;;;;53.50;16.23;;;;;;;10.39;86.36;100379.80;1594964;89;21013;-79
2021/08/28 04:48:31;;;;;;;56.53;16.80;;;;;;;10.46;86.35;100378.95;1611220;88;21049;-79
2021/08/28 04:50:56;;;;;;;48.55;18.02;;;;;;;10.57;86.35;100379.59;1586881;89;21062;-79
2021/08/28 04:53:22;;;;;;;56.15;18.27;;;;;;;10.66;86.35;100377.26;1588172;89;21491;-79
2021/08/28 04:55:48;;;;;;;52.85;18.57;;;;;;;10.69;86.35;100378.25;1586820;90;21743;-80
2021/08/28 04:58:15;;;;;;;30.25;18.27;;;;;;;10.93;86.38;100378.16;1586865;89;21023;-80
2021/08/28 05:00:41;;;;;;;35.28;19.80;;;;;;;11.23;86.39;100381.35;1588398;89;21568;-80
2021/08/28 05:03:07;;;;;;;32.90;18.20;;;;;;;11.68;86.37;100381.11;1586935;90;21120;-80
2021/08/28 05:05:33;;;;;;;32.20;17.98;;;;;;;12.29;86.41;100382.30;1586863;90;21738;-79
2021/08/28 05:07:59;;;;;;;24.85;15.55;;;;;;;13.18;86.38;100377.33;1586988;90;21061;-80
2021/08/28 05:10:25;;;;;;;23.22;15.40;;;;;;;13.83;86.06;100380.41;1587622;89;21066;-80
2021/08/28 05:12:51;;;;;;;27.45;15.18;;;;;;;13.99;85.80;100377.48;1589420;88;20994;-80
2021/08/28 05:15:17;;;;;;;127.60;77.72;;;;;;;14.60;85.79;100375.12;1586571;89;21133;-80
2021/08/28 05:17:43;;;;;;;29.32;20.48;;;;;;;15.22;84.99;100377.20;1586733;90;21096;-80
2021/08/28 05:20:09;;;;;;;29.42;18.62;;;;;;;15.63;84.04;100377.67;1586470;90;21018;-80
2021/08/28 05:22:35;;;;;;;26.07;17.98;;;;;;;15.65;83.78;100381.00;1609260;88;21019;-80
2021/08/28 05:25:01;;;;;;;22.67;16.67;;;;;;;15.53;83.86;100386.13;1611554;89;21044;-80
2021/08/28 05:27:27;;;;;;;26.15;17.07;;;;;;;15.68;83.85;100377.90;1611826;88;21553;-80
2021/08/28 05:29:54;;;;;;;26.33;16.40;;;;;;;15.84;83.78;100383.72;1611595;88;21799;-81
2021/08/28 05:32:20;;;;;;;31.42;16.25;;;;;;;16.03;83.87;100383.95;1611618;88;21026;-80
2021/08/28 05:34:46;;;;;;;28.42;16.93;;;;;;;16.08;83.57;100392.25;1611539;88;21053;-80
2021/08/28 05:37:12;;;;;;;28.57;17.20;;;;;;;16.29;83.50;100395.55;1611700;88;21028;-80
2021/08/28 05:39:38;;;;;;;30.55;21.82;;;;;;;16.06;83.07;100393.78;1597792;88;21561;-80
2021/08/28 05:42:05;;;;;;;31.20;24.40;;;;;;;15.81;82.99;100396.74;1586359;89;21808;-80
2021/08/28 05:44:31;;;;;;;38.28;28.35;;;;;;;15.32;82.91;100395.12;1611798;88;21025;-80
2021/08/28 05:46:57;;;;;;;48.40;31.30;;;;;;;15.08;82.71;100392.95;1611834;89;21088;-80
2021/08/28 05:49:23;;;;;;;55.23;31.60;;;;;;;15.08;82.49;100393.45;1600365;89;21557;-80
2021/08/28 05:51:49;;;;;;;54.65;33.35;;;;;;;14.99;82.25;100391.44;1587835;88;21567;-80
2021/08/28 05:54:15;;;;;;;60.15;34.92;;;;;;;14.98;82.05;100385.77;1602405;89;21773;-80
2021/08/28 05:56:41;;;;;;;69.12;34.60;;;;;;;14.51;81.65;100381.13;1611441;88;21041;-80
2021/08/28 05:59:07;;;;;;;80.55;35.03;;;;;;;14.51;81.65;100381.13;1611485;88;20910;-80
2021/08/28 06:01:33;;;;;;;118.13;32.05;;;;;;;14.38;81.53;100400.66;1599555;89;21041;-80
2021/08/28 06:03:59;;;;;;;145.53;31.27;;;;;;;14.14;81.38;100398.88;1586342;90;21536;-80
2021/08/28 06:06:25;;;;;;;163.65;29.52;;;;;;;13.88;81.36;100404.30;1602364;88;20938;-80
2021/08/28 06:08:51;;;;;;;206.02;26.42;;;;;;;13.78;81.35;100402.95;1601898;89;21521;-80
2021/08/28 06:11:17;;;;;;;264.57;26.75;;;;;;;13.67;81.27;100410.14;1601826;89;21064;-79
2021/08/28 06:13:43;;;;;;;149.23;26.35;;;;;;;13.60;81.11;100407.91;1602591;88;21018;-80
2021/08/28 06:16:09;;;;;;;194.28;24.72;;;;;;;13.53;81.12;100400.30;1602081;89;21066;-79
2021/08/28 06:18:35;;;;;;;130.35;19.87;;;;;;;13.47;81.11;100410.73;1603232;88;21163;-80
2021/08/28 06:21:02;;;;;;;137.68;18.10;;;;;;;13.47;81.16;100405.38;1601381;88;21091;-79
2021/08/28 06:23:29;;;;;;;124.25;26.10;;;;;;;13.30;81.10;100411.98;1611270;89;21030;-80
2021/08/28 06:25:55;;;;;;;62.90;28.57;;;;;;;13.20;81.21;100412.78;1600706;88;21003;-80
2021/08/28 06:28:21;;;;;;;96.37;27.73;;;;;;;13.23;81.28;100408.38;1607024;89;21082;-80
2021/08/28 06:30:47;;;;;;;101.60;28.57;;;;;;;13.34;81.34;100401.21;1611830;89;21119;-80
2021/08/28 06:33:13;;;;;;;74.15;28.35;;;;;;;13.44;81.33;100401.74;1611586;88;21517;-80
2021/08/28 06:35:39;;;;;;;72.92;28.30;;;;;;;13.49;81.27;100403.36;1607667;87;21102;-80
2021/08/28 06:38:05;;;;;;;63.10;26.97;;;;;;;13.60;81.28;100406.56;1610470;88;20934;-80
2021/08/28 06:40:31;;;;;;;73.45;23.65;;;;;;;13.76;81.29;100409.00;1611691;88;21070;-80
2021/08/28 06:42:57;;;;;;;53.60;25.45;;;;;;;13.82;81.29;100406.41;1616586;87;21180;-80
2021/08/28 06:45:23;;;;;;;65.67;27.58;;;;;;;13.97;81.33;100411.69;1636446;87;21091;-80
2021/08/28 06:47:49;;;;;;;68.97;26.37;;;;;;;14.15;81.33;100416.09;1636879;86;21009;-80
2021/08/28 06:50:15;;;;;;;71.47;27.65;;;;;;;14.32;81.27;100416.14;1611861;87;21010;-80
2021/08/28 06:52:41;;;;;;;54.80;27.13;;;;;;;14.38;81.29;100407.37;1611713;87;21644;-80
2021/08/28 06:55:08;;;;;;;53.70;28.38;;;;;;;14.38;81.35;100410.05;1622271;87;21903;-82
2021/08/28 06:57:34;;;;;;;61.13;26.45;;;;;;;14.48;81.42;100402.48;1636742;87;21065;-82
2021/08/28 07:00:00;;;;;;;54.13;27.77;;;;;;;14.59;81.38;100402.97;1636330;87;21038;-82
2021/08/28 07:02:26;;;;;;;55.38;28.47;;;;;;;14.66;81.31;100407.88;1636488;87;21085;-78
2021/08/28 07:04:52;;;;;;;54.10;28.87;;;;;;;14.72;81.24;100389.63;1636718;87;21034;-78
2021/08/28 07:07:18;;;;;;;45.78;26.95;;;;;;;15.03;81.23;100408.81;1605613;87;21116;-78
2021/08/28 07:09:44;;;;;;;37.35;24.65;;;;;;;15.31;81.09;100408.23;1609919;88;21065;-78
2021/08/28 07:12:11;;;;;;;39.05;23.62;;;;;;;15.69;81.07;100403.77;1586459;90;20903;-78
2021/08/28 07:14:39;;;;;;;33.33;22.37;;;;;;;16.00;81.07;100400.00;1586181;90;21546;-78
2021/08/28 07:17:05;;;;;;;40.75;25.68;;;;;;;16.42;81.07;100406.34;1586397;89;21078;-78
2021/08/28 07:19:31;;;;;;;43.30;25.62;;;;;;;16.79;80.98;100406.72;1586268;89;21131;-78
2021/08/28 07:21:57;;;;;;;40.52;25.90;;;;;;;17.03;80.69;100406.04;1586007;90;21082;-78
2021/08/28 07:24:23;;;;;;;35.15;24.35;;;;;;;17.40;80.54;100402.61;1586147;89;21028;-79
2021/08/28 07:26:49;;;;;;;37.98;25.15;;;;;;;17.56;80.25;100399.13;1586441;90;21050;-78
2021/08/28 07:29:15;;;;;;;37.58;24.20;;;;;;;17.78;80.20;100399.12;1586337;89;21051;-78
2021/08/28 07:31:41;;;;;;;43.20;29.10;;;;;;;17.91;80.08;100401.73;1586510;90;21542;-78
2021/08/28 07:34:07;;;;;;;39.48;27.42;;;;;;;17.98;79.85;100399.02;1586320;89;21017;-78
2021/08/28 07:36:33;;;;;;;35.73;25.43;;;;;;;18.16;79.63;100397.71;1586387;90;20947;-78
2021/08/28 07:38:58;;;;;;;33.98;22.77;;;;;;;18.18;79.31;100395.12;1586261;90;21003;-78
2021/08/28 07:41:24;;;;;;;29.57;19.90;;;;;;;17.93;79.00;100392.91;1586119;89;20919;-78
2021/08/28 07:43:50;;;;;;;26.00;20.27;;;;;;;17.93;78.86;100390.21;1586427;89;21862;-79
2021/08/28 07:46:17;;;;;;;27.37;20.05;;;;;;;18.14;78.66;100388.50;1586065;90;20926;-79
2021/08/28 07:48:43;;;;;;;25.43;18.80;;;;;;;18.21;78.20;100386.58;1586266;90;21146;-78
2021/08/28 07:51:09;;;;;;;21.37;16.60;;;;;;;18.16;77.93;100390.45;1586370;90;21091;-78
2021/08/28 07:53:35;;;;;;;23.07;16.57;;;;;;;18.12;77.78;100396.53;1586182;90;21078;-78
2021/08/28 07:56:01;;;;;;;23.62;15.80;;;;;;;18.25;77.59;100398.59;1586128;90;21159;-79
2021/08/28 07:58:27;;;;;;;22.35;16.17;;;;;;;18.50;77.43;100393.71;1586292;90;21038;-78
2021/08/28 08:00:53;;;;;;;24.32;18.45;;;;;;;18.70;77.11;100394.38;1586582;90;21423;-78
2021/08/28 08:03:19;;;;;;;22.48;16.37;;;;;;;18.84;76.78;100397.25;1586171;89;21065;-78
2021/08/28 08:05:45;;;;;;;26.93;16.65;;;;;;;18.79;76.56;100400.61;1586376;90;21525;-78
2021/08/28 08:08:11;;;;;;;26.37;18.23;;;;;;;18.53;76.21;100402.75;1586146;90;21094;-78
2021/08/28 08:10:37;;;;;;;18.27;15.80;;;;;;;18.50;76.09;100407.22;1586232;89;21094;-78
2021/08/28 08:13:03;;;;;;;22.10;16.32;;;;;;;18.35;75.92;100410.25;1586326;90;20950;-78
2021/08/28 08:15:29;;;;;;;21.12;15.78;;;;;;;18.30;75.80;100409.55;1586296;90;21075;-78
2021/08/28 08:17:55;;;;;;;23.55;15.93;;;;;;;18.37;75.60;100411.67;1586289;89;21012;-78
2021/08/28 08:20:21;;;;;;;18.32;14.03;;;;;;;18.40;75.42;100404.47;1586162;89;21146;-78
2021/08/28 08:22:48;;;;;;;14.00;12.50;;;;;;;18.48;75.31;100406.91;1586205;90;21058;-78
2021/08/28 08:25:14;;;;;;;10.70;7.53;;;;;;;18.69;75.02;100403.52;1586450;89;21095;-78
2021/08/28 08:27:40;;;;;;;18.27;11.55;;;;;;;18.62;74.62;100408.16;1586561;90;21074;-78
2021/08/28 08:30:06;;;;;;;11.40;9.25;;;;;;;18.62;74.40;100405.46;1586901;89;20936;-78
2021/08/28 08:32:33;;;;;;;9.85;6.87;;;;;;;18.72;74.16;100401.72;1586854;90;21386;-78
2021/08/28 08:34:59;;;;;;;8.43;7.20;;;;;;;18.81;73.76;100406.64;1602400;89;21173;-78
2021/08/28 08:37:25;;;;;;;12.03;8.50;;;;;;;18.80;73.36;100401.45;1602516;89;21612;-78
2021/08/28 08:39:50;;;;;;;9.63;6.30;;;;;;;18.83;72.94;100402.34;1602723;89;20972;-78
2021/08/28 08:42:18;;;;;;;9.95;7.20;;;;;;;19.02;72.51;100413.48;1602443;88;21726;-78
2021/08/28 08:44:45;;;;;;;8.50;6.05;;;;;;;19.19;72.11;100409.13;1602428;89;21463;-78
2021/08/28 08:47:11;;;;;;;7.28;6.30;;;;;;;19.41;71.73;100409.01;1602584;89;21516;-78
2021/08/28 08:49:38;;;;;;;16.32;11.05;;;;;;;19.43;71.27;100404.70;1602454;89;20988;-78
2021/08/28 08:52:05;;;;;;;20.10;13.85;;;;;;;19.53;70.89;100404.19;1602428;89;21036;-78
2021/08/28 08:54:31;;;;;;;18.57;13.35;;;;;;;19.65;70.47;100407.75;1601868;89;21044;-78
2021/08/28 08:56:57;;;;;;;16.52;12.68;;;;;;;19.68;70.17;100408.12;1602358;89;21533;-78
2021/08/28 08:59:23;;;;;;;13.75;11.22;;;;;;;19.72;69.88;100403.91;1602215;89;20957;-78
2021/08/28 09:01:49;;;;;;;15.10;9.55;;;;;;;19.79;69.59;100403.81;1602404;89;21547;-78
2021/08/28 09:04:15;;;;;;;15.75;10.10;;;;;;;19.83;69.29;100405.01;1602258;89;20964;-78
2021/08/28 09:06:46;;;;;;;10.65;9.20;;;;;;;19.87;68.87;100406.20;1602063;89;21077;-78
2021/08/28 09:09:09;;;;;;;13.32;10.18;;;;;;;19.83;68.54;100407.72;1601909;89;22819;-78
2021/08/28 09:11:35;;;;;;;14.65;9.60;;;;;;;19.92;68.34;100413.09;1602114;89;21027;-78
2021/08/28 09:14:21;;;;;;;8.35;7.30;;;;;;;20.04;68.13;100406.37;1602351;89;21096;-78
2021/08/28 09:16:48;;;;;;;8.35;6.58;;;;;;;20.07;67.76;100411.31;1601483;89;21067;-78
2021/08/28 09:19:14;;;;;;;14.23;7.90;;;;;;;20.03;67.55;100406.89;1602297;89;21146;-78
2021/08/28 09:21:40;;;;;;;8.88;7.33;;;;;;;20.05;67.26;100416.15;1602241;89;21754;-78
2021/08/28 09:24:11;;;;;;;9.25;8.13;;;;;;;20.20;67.01;100408.39;1602341;88;20937;-78
2021/08/28 09:26:44;;;;;;;12.80;7.78;;;;;;;20.03;66.62;100412.30;1588850;89;21044;-78
2021/08/28 09:29:14;;;;;;;8.48;7.20;;;;;;;20.07;66.45;100417.56;1604755;89;21064;-78
2021/08/28 09:31:46;;;;;;;7.78;6.97;;;;;;;20.03;66.09;100416.36;1589083;89;21048;-78
2021/08/28 09:34:19;;;;;;;7.22;6.53;;;;;;;20.06;65.82;100418.61;1604743;89;21624;-78
2021/08/28 09:36:45;;;;;;;9.25;5.83;;;;;;;19.97;65.65;100422.71;1604592;89;20937;-78
2021/08/28 09:39:11;;;;;;;5.15;4.50;;;;;;;19.85;65.60;100415.06;1604816;89;20937;-78
2021/08/28 09:41:37;;;;;;;5.72;5.20;;;;;;;20.01;65.56;100414.95;1604749;89;21084;-78
2021/08/28 09:44:07;;;;;;;7.22;5.12;;;;;;;20.33;65.49;100411.78;1604736;89;21674;-78
2021/08/28 09:46:33;;;;;;;10.50;5.65;;;;;;;20.42;65.27;100404.95;1604743;89;22340;-78
2021/08/28 09:49:00;;;;;;;4.78;4.20;;;;;;;20.43;64.94;100410.67;1604699;89;21044;-78
2021/08/28 09:51:35;;;;;;;6.58;3.65;;;;;;;20.05;64.53;100416.15;1604685;89;21052;-78
2021/08/28 09:54:01;;;;;;;4.58;4.17;;;;;;;19.56;64.51;100416.73;1569351;89;21104;-78
2021/08/28 09:56:27;;;;;;;7.97;4.30;;;;;;;19.32;64.66;100414.90;1604791;89;21104;-78
2021/08/28 09:58:53;;;;;;;5.58;4.60;;;;;;;19.07;64.54;100419.03;1604893;89;21818;-78
2021/08/28 10:01:23;;;;;;;5.20;4.12;;;;;;;18.70;64.47;100415.47;1604797;89;21934;-77
2021/08/28 10:03:59;;;;;;;5.08;4.53;;;;;;;18.58;64.63;100408.33;1605008;89;26487;-78
2021/08/28 10:06:25;;;;;;;5.08;3.95;;;;;;;18.66;64.69;100406.16;1604720;89;21533;-78
2021/08/28 10:08:51;;;;;;;4.60;3.65;;;;;;;18.76;64.68;100398.88;1605046;89;21590;-78
2021/08/28 10:11:19;;;;;;;4.10;3.70;;;;;;;18.89;64.65;100397.42;1604869;89;21822;-78
2021/08/28 10:13:46;;;;;;;4.12;3.37;;;;;;;19.09;64.61;100402.08;1604479;89;21529;-78
2021/08/28 10:16:14;;;;;;;3.67;2.62;;;;;;;19.22;64.57;100403.27;1604861;89;21048;-78
2021/08/28 10:18:40;;;;;;;3.55;3.25;;;;;;;19.35;64.52;100401.75;1604851;89;21528;-78
2021/08/28 10:21:06;;;;;;;5.62;3.65;;;;;;;19.50;64.34;100401.91;1604504;89;21670;-78
2021/08/28 10:23:32;;;;;;;3.17;2.65;;;;;;;19.62;64.16;100401.45;1604754;89;21334;-78
2021/08/28 10:25:58;;;;;;;2.95;2.62;;;;;;;19.78;64.01;100396.73;1604356;89;21057;-78
2021/08/28 10:28:26;;;;;;;3.12;2.62;;;;;;;19.88;63.86;100405.12;1581540;89;21295;-77
2021/08/28 10:30:52;;;;;;;3.62;3.33;;;;;;;20.01;63.70;100407.66;1569056;89;21122;-78
2021/08/28 10:33:17;;;;;;;7.65;2.80;;;;;;;19.95;63.39;100409.91;1604050;88;20952;-78
2021/08/28 10:35:43;;;;;;;6.97;2.92;;;;;;;19.92;63.34;100403.61;1601442;88;21477;-78
2021/08/28 10:38:10;;;;;;;6.42;3.00;;;;;;;20.07;63.20;100403.19;1614961;87;21042;-78
2021/08/28 10:40:36;;;;;;;2.75;2.50;;;;;;;20.18;62.94;100400.52;1597765;88;21057;-79
2021/08/28 10:43:05;;;;;;;3.20;2.90;;;;;;;20.39;62.81;100401.35;1610934;88;21019;-78
2021/08/28 10:45:37;;;;;;;2.95;2.72;;;;;;;20.43;62.56;100399.83;1619290;88;21094;-78
2021/08/28 10:48:06;;;;;;;3.50;2.65;;;;;;;20.49;62.33;100404.00;1597643;88;21562;-80
2021/08/28 10:50:36;;;;;;;3.12;2.80;;;;;;;20.50;62.13;100400.23;1580828;90;21460;-77
2021/08/28 10:53:03;;;;;;;2.98;2.72;;;;;;;20.50;61.95;100404.30;1580551;90;21070;-77
2021/08/28 10:55:40;;;;;;;4.95;3.22;;;;;;;20.47;61.66;100404.25;1580660;90;21053;-76
2021/08/28 10:58:19;;;;;;;2.65;2.45;;;;;;;20.30;61.42;100401.94;1580318;90;21446;-76
2021/08/28 11:00:47;;;;;;;2.92;2.62;;;;;;;19.95;61.17;100403.15;1579413;90;27540;-76
2021/08/28 11:03:34;;;;;;;2.65;2.20;;;;;;;19.77;61.15;100404.59;1580763;90;21044;-76
2021/08/28 11:06:19;;;;;;;3.15;2.70;;;;;;;19.59;61.08;100403.27;1580865;90;21141;-76
2021/08/28 11:08:50;;;;;;;2.60;2.20;;;;;;;19.46;60.99;100400.74;1581112;90;21578;-76
2021/08/28 11:11:36;;;;;;;3.58;2.52;;;;;;;19.33;60.95;100399.81;1580971;90;21068;-76
2021/08/28 11:14:08;;;;;;;4.05;2.70;;;;;;;19.28;60.98;100396.95;1580895;90;21602;-76
2021/08/28 11:16:46;;;;;;;2.60;2.40;;;;;;;19.40;61.01;100395.66;1580842;90;21037;-76
2021/08/28 11:19:26;;;;;;;3.10;2.45;;;;;;;19.69;61.00;100394.07;1580772;90;21145;-77